Time;durP1;ratioP1;P1;durP2;ratioP2;P2;SDS_P1;SDS_P2;PMS_P1;PMS_P2;Temp;Humidity;BMP_temperature;BMP_pressure;BME280_temperature;BME280_humidity;BME280_pressure;Samples;Min_cycle;Max_cycle;Signal;HPM_P1;HPM_P2
2023/03/23 00:01:36;;;;;;;7.07;2.00;;;;;;;;;;4934816;29;20059;-63
2023/03/23 00:04:05;;;;;;;4.68;2.55;;;;;;;;;;4918806;29;20075;-64
2023/03/23 00:06:34;;;;;;;3.90;2.63;;;;;;;;;;4934911;29;20083;-64
2023/03/23 00:09:03;;;;;;;8.27;1.48;;;;;;;;;;4976166;28;20575;-63
2023/03/23 00:11:32;;;;;;;9.55;2.83;;;;;;;;;;4983844;28;20064;-63
2023/03/23 00:14:01;;;;;;;2.80;1.88;;;;;;;;;;4995785;28;20062;-63
2023/03/23 00:16:32;;;;;;;2.55;1.92;;;;;;;;;;5012053;28;20449;-63
2023/03/23 00:19:04;;;;;;;3.33;1.60;;;;;;;;;;5011583;28;20065;-64
2023/03/23 00:21:38;;;;;;;2.95;1.70;;;;;;;;;;5012037;28;20058;-64
2023/03/23 00:24:11;;;;;;;4.07;1.85;;;;;;;;;;5074140;28;20048;-63
2023/03/23 00:26:40;;;;;;;3.88;1.73;;;;;;;;;;5022181;28;20059;-63
2023/03/23 00:29:20;;;;;;;6.53;2.42;;;;;;;;;;5073879;28;20049;-63
2023/03/23 00:31:51;;;;;;;3.13;1.88;;;;;;;;;;5051232;28;20052;-63
2023/03/23 00:34:21;;;;;;;3.70;1.77;;;;;;;;;;5051138;28;20096;-63
2023/03/23 00:36:53;;;;;;;3.40;1.48;;;;;;;;;;5034760;28;20405;-63
2023/03/23 00:39:24;;;;;;;4.35;2.67;;;;;;;;;;5051293;28;20048;-64
2023/03/23 00:41:53;;;;;;;5.47;2.30;;;;;;;;;;5018232;28;20057;-64
2023/03/23 00:44:23;;;;;;;3.75;1.73;;;;;;;;;;5017950;28;20057;-63
2023/03/23 00:46:51;;;;;;;6.28;2.00;;;;;;;;;;5031101;28;20386;-63
2023/03/23 00:49:30;;;;;;;6.43;2.30;;;;;;;;;;5031194;28;20489;-64
2023/03/23 00:52:00;;;;;;;3.35;2.00;;;;;;;;;;5031255;28;20598;-64
2023/03/23 00:54:28;;;;;;;7.63;1.73;;;;;;;;;;5030979;28;20045;-64
2023/03/23 00:56:56;;;;;;;3.88;2.20;;;;;;;;;;5011180;28;20050;-62
2023/03/23 00:59:24;;;;;;;4.18;1.92;;;;;;;;;;5011170;28;20421;-63
2023/03/23 01:01:53;;;;;;;12.07;2.65;;;;;;;;;;4987993;28;20519;-63
2023/03/23 01:04:21;;;;;;;4.10;2.60;;;;;;;;;;4972152;28;20523;-63
2023/03/23 01:06:51;;;;;;;8.10;1.80;;;;;;;;;;4956451;28;20063;-63
2023/03/23 01:09:21;;;;;;;9.45;2.13;;;;;;;;;;4948234;28;20051;-64
2023/03/23 01:11:50;;;;;;;6.45;2.40;;;;;;;;;;4933002;29;20547;-64
2023/03/23 01:14:19;;;;;;;3.28;2.05;;;;;;;;;;4917114;29;20052;-63
2023/03/23 01:16:50;;;;;;;4.07;2.38;;;;;;;;;;4932920;29;20516;-64
2023/03/23 01:19:19;;;;;;;8.32;3.72;;;;;;;;;;4932431;29;20056;-62
2023/03/23 01:21:47;;;;;;;3.70;1.73;;;;;;;;;;4917691;29;20067;-62
2023/03/23 01:24:15;;;;;;;10.55;2.60;;;;;;;;;;4933165;29;20547;-64
2023/03/23 01:26:43;;;;;;;4.20;1.95;;;;;;;;;;4917462;29;20066;-63
2023/03/23 01:29:11;;;;;;;8.95;2.65;;;;;;;;;;4951741;29;20054;-63
2023/03/23 01:31:39;;;;;;;6.18;2.50;;;;;;;;;;4951818;29;20055;-65
2023/03/23 01:34:10;;;;;;;3.63;1.83;;;;;;;;;;4958092;28;20058;-63
2023/03/23 01:36:39;;;;;;;3.67;2.30;;;;;;;;;;4990436;28;20046;-63
2023/03/23 01:39:07;;;;;;;8.68;2.53;;;;;;;;;;4944824;28;20051;-65
2023/03/23 01:41:36;;;;;;;10.05;2.00;;;;;;;;;;4936121;28;20059;-63
2023/03/23 01:44:16;;;;;;;9.50;2.45;;;;;;;;;;4955011;28;20058;-64
2023/03/23 01:46:49;;;;;;;8.65;2.50;;;;;;;;;;4917726;29;20059;-66
2023/03/23 01:49:25;;;;;;;7.50;2.25;;;;;;;;;;4916714;29;20071;-64
2023/03/23 01:52:17;;;;;;;4.63;2.17;;;;;;;;;;4901101;29;20070;-64
2023/03/23 01:54:48;;;;;;;4.63;1.83;;;;;;;;;;4913274;29;20456;-64
2023/03/23 01:57:19;;;;;;;9.02;2.58;;;;;;;;;;4913615;29;20161;-64
2023/03/23 01:59:51;;;;;;;4.72;2.28;;;;;;;;;;4893767;29;20059;-64
2023/03/23 02:02:28;;;;;;;4.68;2.03;;;;;;;;;;4894472;29;20068;-63
2023/03/23 02:05:01;;;;;;;7.18;3.13;;;;;;;;;;4860226;29;20486;-63
2023/03/23 02:07:33;;;;;;;6.95;3.38;;;;;;;;;;4875805;29;20521;-62
2023/03/23 02:10:04;;;;;;;5.70;1.95;;;;;;;;;;4875734;29;20056;-64
2023/03/23 02:12:34;;;;;;;5.93;2.80;;;;;;;;;;4894312;29;20512;-63
2023/03/23 02:15:04;;;;;;;7.68;1.92;;;;;;;;;;4881633;29;20072;-64
2023/03/23 02:17:40;;;;;;;7.55;2.47;;;;;;;;;;4872709;29;20049;-64
2023/03/23 02:20:45;;;;;;;4.43;2.53;;;;;;;;;;4894170;29;20055;-64
2023/03/23 02:23:25;;;;;;;7.40;2.35;;;;;;;;;;4894239;29;20512;-61
2023/03/23 02:26:06;;;;;;;8.35;2.30;;;;;;;;;;4868365;29;20061;-62
2023/03/23 02:28:50;;;;;;;3.67;2.03;;;;;;;;;;4875707;29;20064;-63
2023/03/23 02:31:43;;;;;;;6.85;4.22;;;;;;;;;;4875801;29;20060;-63
2023/03/23 02:34:27;;;;;;;7.10;2.30;;;;;;;;;;4894145;29;20056;-62
2023/03/23 02:37:13;;;;;;;8.35;2.85;;;;;;;;;;4894033;29;20052;-63
2023/03/23 02:39:47;;;;;;;6.47;2.40;;;;;;;;;;4841235;29;20061;-68
2023/03/23 02:42:20;;;;;;;7.43;2.45;;;;;;;;;;4827808;29;20054;-63
2023/03/23 02:44:52;;;;;;;10.25;2.28;;;;;;;;;;4853352;29;20069;-63
2023/03/23 02:47:26;;;;;;;4.68;2.20;;;;;;;;;;4868371;29;20411;-63
2023/03/23 02:49:55;;;;;;;5.63;2.05;;;;;;;;;;4845566;29;20067;-63
2023/03/23 02:52:27;;;;;;;8.13;2.83;;;;;;;;;;4823837;29;20054;-63
2023/03/23 02:54:56;;;;;;;;;;;;;;;;;;4824642;29;20058;-63
2023/03/23 02:57:26;;;;;;;7.35;3.05;;;;;;;;;;4865610;29;20398;-63
2023/03/23 02:59:55;;;;;;;5.20;2.28;;;;;;;;;;4838004;29;20065;-63
2023/03/23 03:02:29;;;;;;;6.78;2.78;;;;;;;;;;4854304;29;20561;-63
2023/03/23 03:05:09;;;;;;;6.88;2.80;;;;;;;;;;4823778;29;20129;-62
2023/03/23 03:07:59;;;;;;;8.43;2.30;;;;;;;;;;4835404;29;20059;-63
2023/03/23 03:10:44;;;;;;;4.35;2.13;;;;;;;;;;4801749;29;20508;-64
2023/03/23 03:13:23;;;;;;;6.15;2.15;;;;;;;;;;4805801;29;20058;-63
2023/03/23 03:16:18;;;;;;;6.32;2.20;;;;;;;;;;4856843;29;20422;-63
2023/03/23 03:18:49;;;;;;;8.02;1.92;;;;;;;;;;4875423;29;20176;-63
2023/03/23 03:21:25;;;;;;;6.65;2.38;;;;;;;;;;4874241;29;20057;-63
2023/03/23 03:24:00;;;;;;;8.15;2.13;;;;;;;;;;4841501;29;20050;-63
2023/03/23 03:26:31;;;;;;;5.53;2.25;;;;;;;;;;4859886;29;20061;-63
2023/03/23 03:29:23;;;;;;;6.60;2.15;;;;;;;;;;4837887;29;20655;-62
2023/03/23 03:31:57;;;;;;;9.38;2.92;;;;;;;;;;4850843;29;20066;-63
2023/03/23 03:34:27;;;;;;;4.72;2.10;;;;;;;;;;4835969;29;20070;-63
2023/03/23 03:36:59;;;;;;;4.72;2.25;;;;;;;;;;4869986;29;20416;-63
2023/03/23 03:39:28;;;;;;;5.07;2.78;;;;;;;;;;4896845;29;20057;-63
2023/03/23 03:41:56;;;;;;;4.45;2.10;;;;;;;;;;4881142;29;20535;-63
2023/03/23 03:44:24;;;;;;;5.78;2.05;;;;;;;;;;4881151;29;20059;-63
2023/03/23 03:46:52;;;;;;;7.10;2.38;;;;;;;;;;4897169;29;20056;-64
2023/03/23 03:49:20;;;;;;;5.47;2.38;;;;;;;;;;4891613;29;20061;-63
2023/03/23 03:51:48;;;;;;;8.18;2.53;;;;;;;;;;4878193;29;20197;-64
2023/03/23 03:54:22;;;;;;;5.07;2.10;;;;;;;;;;4845665;29;20054;-63
2023/03/23 03:56:51;;;;;;;4.80;2.30;;;;;;;;;;4843956;29;20057;-63
2023/03/23 03:59:54;;;;;;;6.75;1.90;;;;;;;;;;4805775;29;20047;-63
2023/03/23 04:02:50;;;;;;;5.20;2.10;;;;;;;;;;4786899;29;20056;-63
2023/03/23 04:05:28;;;;;;;9.85;2.22;;;;;;;;;;4750602;30;20521;-62
2023/03/23 04:08:01;;;;;;;5.85;2.28;;;;;;;;;;4803662;29;20059;-64
2023/03/23 04:10:33;;;;;;;6.45;2.30;;;;;;;;;;4823844;29;20553;-64
2023/03/23 04:13:04;;;;;;;8.13;2.42;;;;;;;;;;4804180;29;20081;-63
2023/03/23 04:16:01;;;;;;;10.40;2.92;;;;;;;;;;4787639;29;20464;-63
2023/03/23 04:18:34;;;;;;;8.50;2.58;;;;;;;;;;4800781;29;20523;-64
2023/03/23 04:21:03;;;;;;;6.97;2.08;;;;;;;;;;4753687;30;20064;-63
2023/03/23 04:23:34;;;;;;;6.03;3.00;;;;;;;;;;4804103;29;20063;-63
2023/03/23 04:26:04;;;;;;;5.93;2.08;;;;;;;;;;4803953;29;20063;-64
2023/03/23 04:28:42;;;;;;;10.82;2.13;;;;;;;;;;4803919;29;20078;-63
2023/03/23 04:31:44;;;;;;;4.10;1.92;;;;;;;;;;4829931;29;20491;-62
2023/03/23 04:34:27;;;;;;;7.00;2.10;;;;;;;;;;4827719;29;20066;-62
2023/03/23 04:36:56;;;;;;;7.65;2.30;;;;;;;;;;4788991;29;20138;-62
2023/03/23 04:39:28;;;;;;;;;;;;;;;;;;4804046;29;20070;-63
2023/03/23 04:42:01;;;;;;;7.25;2.30;;;;;;;;;;4774159;29;19933;-63
2023/03/23 04:44:55;;;;;;;6.30;2.90;;;;;;;;;;4748682;30;20493;-63
2023/03/23 04:47:34;;;;;;;10.07;2.15;;;;;;;;;;4750037;30;20517;-63
2023/03/23 04:50:03;;;;;;;5.43;2.03;;;;;;;;;;4767518;30;20064;-63
2023/03/23 04:52:38;;;;;;;6.38;2.30;;;;;;;;;;4786373;29;20051;-63
2023/03/23 04:55:09;;;;;;;12.05;2.95;;;;;;;;;;4838291;29;20054;-63
2023/03/23 04:57:40;;;;;;;;;;;;;;;;;;4800304;29;20085;-63
2023/03/23 05:00:26;;;;;;;4.43;2.03;;;;;;;;;;4772421;29;19929;-62
2023/03/23 05:02:56;;;;;;;5.97;2.10;;;;;;;;;;4763973;30;20056;-63
2023/03/23 05:05:31;;;;;;;6.00;2.35;;;;;;;;;;4801508;29;20058;-63
2023/03/23 05:08:05;;;;;;;10.18;2.10;;;;;;;;;;4844632;29;20460;-63
2023/03/23 05:10:37;;;;;;;3.78;1.88;;;;;;;;;;4844908;29;20058;-63
2023/03/23 05:13:09;;;;;;;7.10;2.83;;;;;;;;;;4839867;29;20062;-63
2023/03/23 05:15:38;;;;;;;8.65;2.95;;;;;;;;;;4860247;29;20410;-63
2023/03/23 05:18:06;;;;;;;3.75;2.15;;;;;;;;;;4875946;29;20069;-62
2023/03/23 05:20:34;;;;;;;6.75;2.40;;;;;;;;;;4857831;29;20514;-63
2023/03/23 05:23:06;;;;;;;5.95;2.85;;;;;;;;;;4857587;29;20054;-62
2023/03/23 05:25:39;;;;;;;4.50;2.22;;;;;;;;;;4849782;29;20058;-63
2023/03/23 05:28:14;;;;;;;6.72;2.22;;;;;;;;;;4872419;29;20080;-63
2023/03/23 05:30:45;;;;;;;6.07;2.67;;;;;;;;;;4858338;29;20057;-63
2023/03/23 05:33:16;;;;;;;10.15;1.92;;;;;;;;;;4894818;29;20580;-64
2023/03/23 05:35:54;;;;;;;7.95;2.00;;;;;;;;;;4913772;29;20060;-63
2023/03/23 05:38:30;;;;;;;6.10;1.85;;;;;;;;;;4898976;29;20052;-63
2023/03/23 05:41:01;;;;;;;5.10;2.47;;;;;;;;;;4857456;29;20084;-63
2023/03/23 05:43:37;;;;;;;7.53;2.03;;;;;;;;;;4825628;29;20059;-62
2023/03/23 05:46:14;;;;;;;5.10;2.92;;;;;;;;;;4797005;29;20063;-64
2023/03/23 05:48:43;;;;;;;6.32;2.03;;;;;;;;;;4800121;29;20066;-64
2023/03/23 05:51:15;;;;;;;6.50;1.77;;;;;;;;;;4813385;29;20500;-63
2023/03/23 05:53:45;;;;;;;13.93;2.88;;;;;;;;;;4820765;29;20065;-63
2023/03/23 05:56:15;;;;;;;9.00;2.10;;;;;;;;;;4835461;29;20058;-62
2023/03/23 05:59:18;;;;;;;6.32;2.13;;;;;;;;;;4793023;29;20062;-62
2023/03/23 06:01:55;;;;;;;5.53;2.17;;;;;;;;;;4774250;29;20058;-62
2023/03/23 06:04:24;;;;;;;4.03;2.58;;;;;;;;;;4802508;29;20543;-62
2023/03/23 06:07:03;;;;;;;7.25;2.40;;;;;;;;;;4801605;29;20078;-62
2023/03/23 06:09:31;;;;;;;5.70;2.10;;;;;;;;;;4811928;29;20059;-62
2023/03/23 06:12:05;;;;;;;6.88;2.33;;;;;;;;;;4793609;29;20062;-62
2023/03/23 06:15:08;;;;;;;6.50;2.20;;;;;;;;;;4820796;29;20081;-62
2023/03/23 06:18:08;;;;;;;6.60;2.15;;;;;;;;;;4853770;29;20219;-62
2023/03/23 06:20:46;;;;;;;5.32;2.60;;;;;;;;;;4872288;29;20081;-62
2023/03/23 06:23:23;;;;;;;3.53;2.10;;;;;;;;;;4875284;29;20049;-63
2023/03/23 06:25:58;;;;;;;7.18;2.78;;;;;;;;;;4857447;29;20054;-62
2023/03/23 06:28:27;;;;;;;7.47;2.15;;;;;;;;;;4844920;29;20063;-63
2023/03/23 06:30:58;;;;;;;10.38;2.17;;;;;;;;;;4863322;29;20503;-62
2023/03/23 06:33:26;;;;;;;9.02;1.95;;;;;;;;;;4825982;29;20059;-61
2023/03/23 06:36:23;;;;;;;7.47;2.10;;;;;;;;;;4802333;29;20105;-62
2023/03/23 06:39:00;;;;;;;5.72;1.98;;;;;;;;;;4832686;29;20442;-62
2023/03/23 06:41:43;;;;;;;6.85;2.40;;;;;;;;;;4801142;29;20051;-62
2023/03/23 06:44:13;;;;;;;5.60;3.35;;;;;;;;;;4790384;29;20063;-62
2023/03/23 06:46:42;;;;;;;6.63;2.60;;;;;;;;;;4784053;29;20533;-62
2023/03/23 06:49:32;;;;;;;10.40;2.85;;;;;;;;;;4784912;29;20068;-63
2023/03/23 06:52:10;;;;;;;8.68;1.80;;;;;;;;;;4794672;29;20186;-62
2023/03/23 06:54:39;;;;;;;4.85;1.65;;;;;;;;;;4801370;29;20055;-62
2023/03/23 06:57:08;;;;;;;5.25;1.73;;;;;;;;;;4786785;29;20427;-62
2023/03/23 06:59:36;;;;;;;5.63;1.70;;;;;;;;;;4801719;29;20066;-62
2023/03/23 07:02:06;;;;;;;5.00;1.95;;;;;;;;;;4767671;29;20063;-62
2023/03/23 07:04:34;;;;;;;5.50;2.38;;;;;;;;;;4784783;29;20066;-62
2023/03/23 07:07:10;;;;;;;7.68;2.05;;;;;;;;;;4819856;29;20067;-63
2023/03/23 07:09:47;;;;;;;4.60;2.65;;;;;;;;;;4777286;29;20060;-62
2023/03/23 07:12:18;;;;;;;4.20;1.92;;;;;;;;;;4788900;29;20424;-62
2023/03/23 07:14:48;;;;;;;6.60;2.13;;;;;;;;;;4765587;30;20071;-62
2023/03/23 07:17:16;;;;;;;7.90;2.17;;;;;;;;;;4765911;30;20060;-62
2023/03/23 07:20:00;;;;;;;4.03;1.83;;;;;;;;;;4778502;29;20172;-62
2023/03/23 07:22:30;;;;;;;5.60;2.28;;;;;;;;;;4765642;30;20510;-62
2023/03/23 07:25:06;;;;;;;6.75;2.33;;;;;;;;;;4747199;30;20510;-62
2023/03/23 07:27:50;;;;;;;6.63;1.90;;;;;;;;;;4739920;30;20061;-63
2023/03/23 07:30:18;;;;;;;9.20;2.40;;;;;;;;;;4773489;29;20059;-63
2023/03/23 07:32:47;;;;;;;4.47;2.60;;;;;;;;;;4777727;30;20063;-62
2023/03/23 07:35:15;;;;;;;6.97;2.05;;;;;;;;;;4819422;29;20419;-62
2023/03/23 07:37:53;;;;;;;3.90;2.45;;;;;;;;;;4815444;29;20051;-63
2023/03/23 07:40:22;;;;;;;9.23;1.95;;;;;;;;;;4835762;29;20061;-64
2023/03/23 07:42:55;;;;;;;8.15;2.00;;;;;;;;;;4848738;29;20059;-63
2023/03/23 07:45:41;;;;;;;3.10;1.73;;;;;;;;;;4823358;29;20058;-62
2023/03/23 07:48:09;;;;;;;4.55;1.80;;;;;;;;;;4822817;29;20058;-62
2023/03/23 07:50:37;;;;;;;4.75;2.13;;;;;;;;;;4825902;29;20058;-62
2023/03/23 07:53:09;;;;;;;5.28;1.95;;;;;;;;;;4826311;29;20158;-61
2023/03/23 07:55:39;;;;;;;7.45;2.25;;;;;;;;;;4841298;29;20054;-62
2023/03/23 07:58:26;;;;;;;7.82;2.72;;;;;;;;;;4815774;29;20055;-62
2023/03/23 08:00:57;;;;;;;6.80;1.95;;;;;;;;;;4816484;29;20067;-62
2023/03/23 08:03:28;;;;;;;6.65;2.75;;;;;;;;;;4822640;29;20061;-62
2023/03/23 08:06:21;;;;;;;4.18;1.83;;;;;;;;;;4871984;29;20054;-63
2023/03/23 08:09:15;;;;;;;7.68;2.15;;;;;;;;;;4870513;29;20081;-62
2023/03/23 08:12:06;;;;;;;5.05;2.20;;;;;;;;;;4859856;29;20057;-62
2023/03/23 08:14:53;;;;;;;5.38;1.92;;;;;;;;;;4860088;29;20050;-64
2023/03/23 08:17:45;;;;;;;5.82;2.38;;;;;;;;;;4833113;29;20061;-62
2023/03/23 08:20:53;;;;;;;4.20;2.17;;;;;;;;;;4822700;29;20055;-62
2023/03/23 08:23:53;;;;;;;5.32;1.90;;;;;;;;;;4841190;29;20057;-62
2023/03/23 08:26:30;;;;;;;5.55;2.30;;;;;;;;;;4841058;29;20087;-61
2023/03/23 08:29:21;;;;;;;5.82;2.78;;;;;;;;;;4834536;29;20054;-62
2023/03/23 08:32:16;;;;;;;3.63;1.70;;;;;;;;;;4822591;29;20054;-62
2023/03/23 08:35:04;;;;;;;11.63;2.55;;;;;;;;;;4796846;29;20059;-62
2023/03/23 08:38:12;;;;;;;4.53;2.20;;;;;;;;;;4815976;29;20054;-62
2023/03/23 08:41:12;;;;;;;6.97;2.63;;;;;;;;;;4829423;29;20045;-62
2023/03/23 08:43:58;;;;;;;5.95;2.42;;;;;;;;;;4840430;29;20064;-63
2023/03/23 08:46:56;;;;;;;5.30;2.30;;;;;;;;;;4834504;29;20050;-63
2023/03/23 08:49:43;;;;;;;7.22;1.70;;;;;;;;;;4822984;29;20396;-62
2023/03/23 08:52:37;;;;;;;5.15;2.88;;;;;;;;;;4815610;29;20455;-62
2023/03/23 08:55:39;;;;;;;8.00;2.38;;;;;;;;;;4796904;29;20114;-62
2023/03/23 08:58:13;;;;;;;5.47;2.13;;;;;;;;;;4786180;29;20548;-62
2023/03/23 09:01:01;;;;;;;6.53;2.17;;;;;;;;;;4778504;29;20532;-63
2023/03/23 09:03:42;;;;;;;4.78;1.70;;;;;;;;;;4781413;29;20051;-62
2023/03/23 09:06:28;;;;;;;6.43;2.10;;;;;;;;;;4759682;30;20052;-62
2023/03/23 09:08:56;;;;;;;4.65;1.52;;;;;;;;;;4788417;29;20511;-63
2023/03/23 09:11:24;;;;;;;4.72;1.63;;;;;;;;;;4803747;29;20139;-64
2023/03/23 09:13:52;;;;;;;5.35;2.25;;;;;;;;;;4803915;29;20066;-62
2023/03/23 09:16:20;;;;;;;7.72;1.88;;;;;;;;;;4823296;29;20062;-64
2023/03/23 09:18:49;;;;;;;5.13;2.10;;;;;;;;;;4821900;29;20065;-62
2023/03/23 09:21:18;;;;;;;6.03;2.03;;;;;;;;;;4821964;29;20065;-63
2023/03/23 09:23:46;;;;;;;10.50;1.90;;;;;;;;;;4858684;29;20067;-62
2023/03/23 09:26:14;;;;;;;8.00;2.50;;;;;;;;;;4895502;29;20083;-63
2023/03/23 09:28:44;;;;;;;6.28;2.53;;;;;;;;;;4926812;29;20064;-62
2023/03/23 09:31:13;;;;;;;6.63;2.38;;;;;;;;;;4953140;28;20054;-62
2023/03/23 09:33:41;;;;;;;4.43;2.70;;;;;;;;;;4990875;28;20421;-62
2023/03/23 09:36:12;;;;;;;7.38;2.33;;;;;;;;;;4958743;28;20061;-62
2023/03/23 09:38:41;;;;;;;4.63;1.80;;;;;;;;;;4991126;28;20051;-62
2023/03/23 09:41:45;;;;;;;9.40;2.40;;;;;;;;;;4966972;28;20623;-62
2023/03/23 09:44:31;;;;;;;5.97;1.65;;;;;;;;;;4958649;28;20530;-63
2023/03/23 09:47:05;;;;;;;3.08;1.52;;;;;;;;;;4974770;28;20051;-62
2023/03/23 09:49:45;;;;;;;5.35;2.50;;;;;;;;;;4990562;28;20054;-62
2023/03/23 09:52:18;;;;;;;6.22;1.70;;;;;;;;;;4990904;28;20422;-63
2023/03/23 09:54:52;;;;;;;4.13;1.85;;;;;;;;;;4990731;28;20054;-62
2023/03/23 09:57:33;;;;;;;5.07;1.98;;;;;;;;;;4990672;28;20050;-62
2023/03/23 10:00:39;;;;;;;6.38;2.30;;;;;;;;;;4974580;28;20055;-62
2023/03/23 10:03:18;;;;;;;6.45;2.10;;;;;;;;;;4990319;28;20057;-63
2023/03/23 10:05:53;;;;;;;4.97;1.83;;;;;;;;;;4990190;28;20054;-63
2023/03/23 10:08:24;;;;;;;7.03;2.25;;;;;;;;;;4965523;28;20194;-62
2023/03/23 10:11:10;;;;;;;4.07;1.60;;;;;;;;;;4990263;28;20384;-64
2023/03/23 10:13:38;;;;;;;5.25;2.03;;;;;;;;;;4974175;28;20057;-62
2023/03/23 10:16:29;;;;;;;7.70;2.10;;;;;;;;;;5006677;28;20498;-63
2023/03/23 10:19:20;;;;;;;5.70;1.90;;;;;;;;;;4990372;28;20073;-63
2023/03/23 10:21:56;;;;;;;3.40;1.92;;;;;;;;;;4941827;28;20058;-63
2023/03/23 10:24:35;;;;;;;3.20;1.73;;;;;;;;;;4958344;28;20069;-62
2023/03/23 10:27:13;;;;;;;3.33;2.05;;;;;;;;;;4999613;28;20553;-62
2023/03/23 10:29:52;;;;;;;6.07;2.20;;;;;;;;;;5009672;28;20046;-63
2023/03/23 10:32:38;;;;;;;;;;;;;;;;;;4993824;28;20516;-64
2023/03/23 10:35:16;;;;;;;7.88;2.20;;;;;;;;;;4993521;28;19928;-65
2023/03/23 10:37:48;;;;;;;4.60;2.28;;;;;;;;;;5009319;28;20061;-63
2023/03/23 10:40:21;;;;;;;5.20;2.90;;;;;;;;;;5009841;28;20053;-63
2023/03/23 10:42:51;;;;;;;8.95;2.85;;;;;;;;;;4978135;28;20418;-62
2023/03/23 10:45:29;;;;;;;7.38;3.20;;;;;;;;;;4993019;28;20054;-62
2023/03/23 10:48:30;;;;;;;4.93;2.90;;;;;;;;;;5005746;28;20064;-62
2023/03/23 10:51:04;;;;;;;6.45;3.10;;;;;;;;;;5033160;28;20044;-62
2023/03/23 10:53:37;;;;;;;8.73;3.05;;;;;;;;;;5009190;28;20072;-63
2023/03/23 10:56:19;;;;;;;5.55;2.80;;;;;;;;;;5009638;28;20073;-62
2023/03/23 10:58:47;;;;;;;6.40;2.80;;;;;;;;;;5009363;28;20060;-62
2023/03/23 11:01:19;;;;;;;7.82;3.40;;;;;;;;;;5009518;28;20058;-64
2023/03/23 11:03:49;;;;;;;5.80;3.42;;;;;;;;;;5009285;28;20046;-63
2023/03/23 11:06:26;;;;;;;8.73;3.80;;;;;;;;;;4992882;28;20510;-63
2023/03/23 11:09:15;;;;;;;8.48;4.28;;;;;;;;;;5009285;28;20528;-64
2023/03/23 11:11:49;;;;;;;6.45;3.50;;;;;;;;;;5009628;28;20065;-64
2023/03/23 11:14:29;;;;;;;6.70;3.20;;;;;;;;;;4976841;28;20072;-64
2023/03/23 11:17:01;;;;;;;6.93;3.00;;;;;;;;;;4978110;28;20166;-63
2023/03/23 11:19:32;;;;;;;5.00;2.38;;;;;;;;;;5013185;28;20053;-64
2023/03/23 11:22:09;;;;;;;6.43;3.10;;;;;;;;;;4996745;28;20057;-63
2023/03/23 11:24:43;;;;;;;5.47;3.10;;;;;;;;;;5017370;28;20053;-64
2023/03/23 11:27:11;;;;;;;7.40;2.80;;;;;;;;;;5032450;28;20064;-64
2023/03/23 11:30:10;;;;;;;8.35;2.90;;;;;;;;;;5032869;28;20420;-64
2023/03/23 11:32:43;;;;;;;5.18;3.40;;;;;;;;;;5032418;28;20065;-64
2023/03/23 11:35:26;;;;;;;5.07;2.65;;;;;;;;;;5035019;28;20057;-64
2023/03/23 11:37:58;;;;;;;10.02;2.60;;;;;;;;;;5051768;28;20037;-63
2023/03/23 11:40:31;;;;;;;9.88;4.22;;;;;;;;;;5051569;28;20416;-64
2023/03/23 11:43:14;;;;;;;9.95;3.72;;;;;;;;;;5035469;28;20053;-64
2023/03/23 11:45:55;;;;;;;6.60;3.20;;;;;;;;;;5035537;28;20128;-63
2023/03/23 11:48:45;;;;;;;9.88;3.63;;;;;;;;;;5036014;28;20045;-63
2023/03/23 11:51:20;;;;;;;8.00;4.03;;;;;;;;;;5052255;28;20057;-63
2023/03/23 11:54:22;;;;;;;9.65;4.40;;;;;;;;;;5052613;28;20156;-63
2023/03/23 11:56:50;;;;;;;8.55;4.63;;;;;;;;;;5035833;28;20045;-63
2023/03/23 11:59:33;;;;;;;9.05;3.58;;;;;;;;;;5035371;28;20436;-63
2023/03/23 12:02:13;;;;;;;9.23;4.15;;;;;;;;;;5036762;28;20049;-63
2023/03/23 12:04:46;;;;;;;6.90;3.33;;;;;;;;;;5062873;28;20415;-63
2023/03/23 12:07:42;;;;;;;7.78;3.95;;;;;;;;;;5039171;28;20056;-63
2023/03/23 12:10:19;;;;;;;12.13;4.28;;;;;;;;;;5074545;28;20040;-64
2023/03/23 12:13:18;;;;;;;8.82;5.15;;;;;;;;;;5038430;28;20060;-63
2023/03/23 12:16:11;;;;;;;8.30;3.33;;;;;;;;;;5071846;28;20064;-63
2023/03/23 12:19:08;;;;;;;11.52;4.65;;;;;;;;;;5073514;28;20522;-63
2023/03/23 12:21:51;;;;;;;;;;;;;;;;;;5021745;28;20508;-63
2023/03/23 12:24:40;;;;;;;7.40;3.20;;;;;;;;;;5038358;28;19935;-63
2023/03/23 12:27:25;;;;;;;8.07;5.28;;;;;;;;;;5066971;28;20049;-63
2023/03/23 12:30:15;;;;;;;5.45;3.63;;;;;;;;;;5072979;28;20062;-63
2023/03/23 12:33:02;;;;;;;7.97;2.67;;;;;;;;;;5023337;28;20045;-63
2023/03/23 12:35:52;;;;;;;5.38;2.88;;;;;;;;;;5035589;28;20056;-63
2023/03/23 12:38:54;;;;;;;5.97;2.72;;;;;;;;;;5037804;28;20527;-64
2023/03/23 12:41:44;;;;;;;4.32;1.80;;;;;;;;;;4959616;28;20087;-63
2023/03/23 12:44:14;;;;;;;9.25;3.53;;;;;;;;;;4975747;28;20438;-64
2023/03/23 12:47:06;;;;;;;7.78;3.03;;;;;;;;;;4943883;28;20054;-63
2023/03/23 12:49:39;;;;;;;7.03;3.10;;;;;;;;;;4959020;28;20442;-63
2023/03/23 12:52:40;;;;;;;5.57;3.53;;;;;;;;;;4941352;28;20086;-63
2023/03/23 12:55:18;;;;;;;6.10;3.17;;;;;;;;;;4991772;28;20050;-63
2023/03/23 12:58:09;;;;;;;6.72;3.20;;;;;;;;;;4991966;28;20059;-62
2023/03/23 13:01:04;;;;;;;5.53;3.00;;;;;;;;;;4959640;28;20550;-64
2023/03/23 13:03:53;;;;;;;4.82;2.67;;;;;;;;;;4991359;28;20069;-63
2023/03/23 13:06:51;;;;;;;6.38;2.60;;;;;;;;;;4991344;28;20050;-63
2023/03/23 13:09:32;;;;;;;3.50;2.42;;;;;;;;;;4933354;29;21712;-63
2023/03/23 13:12:03;;;;;;;5.13;2.28;;;;;;;;;;4886273;29;20056;-63
2023/03/23 13:14:34;;;;;;;4.70;2.70;;;;;;;;;;4909713;29;20541;-64
2023/03/23 13:17:19;;;;;;;6.97;2.33;;;;;;;;;;4930447;29;20051;-63
2023/03/23 13:20:21;;;;;;;5.38;3.03;;;;;;;;;;4933255;29;20543;-64
2023/03/23 13:23:13;;;;;;;8.45;2.55;;;;;;;;;;4933804;29;20063;-63
2023/03/23 13:26:03;;;;;;;4.95;2.20;;;;;;;;;;4917606;29;20060;-63
2023/03/23 13:28:52;;;;;;;6.07;2.30;;;;;;;;;;4933213;29;20432;-63
2023/03/23 13:31:33;;;;;;;5.38;2.78;;;;;;;;;;4895558;29;20061;-62
2023/03/23 13:34:15;;;;;;;5.65;3.08;;;;;;;;;;4895219;29;20535;-63
2023/03/23 13:36:55;;;;;;;6.90;3.45;;;;;;;;;;4895362;29;20151;-63
2023/03/23 13:39:28;;;;;;;6.80;3.33;;;;;;;;;;4860530;29;20053;-63
2023/03/23 13:42:11;;;;;;;5.55;2.70;;;;;;;;;;4845445;29;20172;-63
2023/03/23 13:44:49;;;;;;;4.57;2.20;;;;;;;;;;4862245;29;20061;-62
2023/03/23 13:47:31;;;;;;;6.55;2.53;;;;;;;;;;4914292;29;20055;-63
2023/03/23 13:50:10;;;;;;;4.45;2.75;;;;;;;;;;4898195;29;20068;-63
2023/03/23 13:52:44;;;;;;;3.05;2.05;;;;;;;;;;4898483;29;20056;-63
2023/03/23 13:55:36;;;;;;;8.05;2.05;;;;;;;;;;4913328;29;20420;-63
2023/03/23 13:58:05;;;;;;;5.65;2.10;;;;;;;;;;4913870;29;20193;-64
2023/03/23 14:00:33;;;;;;;4.47;1.77;;;;;;;;;;4913857;29;20056;-63
2023/03/23 14:03:20;;;;;;;4.30;2.33;;;;;;;;;;4906450;29;20055;-64
2023/03/23 14:05:57;;;;;;;2.15;1.88;;;;;;;;;;4894751;29;20061;-64
2023/03/23 14:08:28;;;;;;;2.85;1.70;;;;;;;;;;4929850;28;20482;-64
2023/03/23 14:11:03;;;;;;;6.45;2.25;;;;;;;;;;4984682;28;20054;-63
2023/03/23 14:13:32;;;;;;;4.10;2.05;;;;;;;;;;4990383;28;20058;-63
2023/03/23 14:16:04;;;;;;;2.38;1.42;;;;;;;;;;4990174;28;20046;-63
2023/03/23 14:18:42;;;;;;;3.00;1.92;;;;;;;;;;4957674;28;20147;-63
2023/03/23 14:21:30;;;;;;;3.25;1.58;;;;;;;;;;4990189;28;20054;-63
2023/03/23 14:24:01;;;;;;;2.63;1.33;;;;;;;;;;4989909;28;20521;-63
2023/03/23 14:26:33;;;;;;;5.55;2.08;;;;;;;;;;4970519;28;20082;-64
2023/03/23 14:29:02;;;;;;;3.15;1.80;;;;;;;;;;4938299;28;20101;-63
2023/03/23 14:31:29;;;;;;;4.10;1.70;;;;;;;;;;4938529;28;20066;-64
2023/03/23 14:34:03;;;;;;;4.18;1.85;;;;;;;;;;4906326;28;20065;-63
2023/03/23 14:36:32;;;;;;;3.00;1.35;;;;;;;;;;4970734;28;20104;-63
2023/03/23 14:39:01;;;;;;;2.83;1.30;;;;;;;;;;4970599;28;20062;-63
2023/03/23 14:41:31;;;;;;;5.65;1.70;;;;;;;;;;4987409;28;20062;-63
2023/03/23 14:44:03;;;;;;;2.97;1.70;;;;;;;;;;4989850;28;20065;-63
2023/03/23 14:46:33;;;;;;;3.35;1.23;;;;;;;;;;5019043;28;20612;-63
2023/03/23 14:49:05;;;;;;;2.20;1.88;;;;;;;;;;4996109;28;20512;-63
2023/03/23 14:51:34;;;;;;;2.03;1.00;;;;;;;;;;5013931;28;20527;-63
2023/03/23 14:54:01;;;;;;;2.92;1.30;;;;;;;;;;5056678;28;20060;-64
2023/03/23 14:56:36;;;;;;;3.95;1.35;;;;;;;;;;5071263;28;20080;-64
2023/03/23 14:59:09;;;;;;;4.80;1.92;;;;;;;;;;4999065;28;20060;-63
2023/03/23 15:01:39;;;;;;;4.03;1.58;;;;;;;;;;5000287;28;20523;-63
2023/03/23 15:04:15;;;;;;;3.72;2.25;;;;;;;;;;5021220;28;20393;-63
2023/03/23 15:06:56;;;;;;;3.13;1.70;;;;;;;;;;5035877;28;20067;-63
2023/03/23 15:09:25;;;;;;;1.92;1.25;;;;;;;;;;5066459;28;20164;-63
2023/03/23 15:12:03;;;;;;;3.65;1.63;;;;;;;;;;5064982;28;20041;-63
2023/03/23 15:14:47;;;;;;;1.75;1.20;;;;;;;;;;5068502;28;20419;-63
2023/03/23 15:17:22;;;;;;;;;;;;;;;;;;5073905;28;20040;-63
2023/03/23 15:19:52;;;;;;;1.63;1.45;;;;;;;;;;5054926;28;19920;-64
2023/03/23 15:22:26;;;;;;;2.63;1.17;;;;;;;;;;5055284;28;20052;-63
2023/03/23 15:25:10;;;;;;;3.00;1.50;;;;;;;;;;5037196;28;20484;-63
2023/03/23 15:27:44;;;;;;;6.22;1.70;;;;;;;;;;4978356;28;20065;-62
2023/03/23 15:30:31;;;;;;;2.83;1.85;;;;;;;;;;4993398;28;20162;-63
2023/03/23 15:33:12;;;;;;;2.72;1.45;;;;;;;;;;4993263;28;20062;-63
2023/03/23 15:35:46;;;;;;;2.47;1.80;;;;;;;;;;4993133;28;20556;-63
2023/03/23 15:38:32;;;;;;;3.28;1.33;;;;;;;;;;4976578;28;20434;-63
2023/03/23 15:41:05;;;;;;;2.38;1.60;;;;;;;;;;4993083;28;20162;-63
2023/03/23 15:43:35;;;;;;;2.67;1.27;;;;;;;;;;4992800;28;20398;-63